createdAt,value
2023-03-27T00:00:38.409Z,107
2023-03-27T00:01:45.370Z,105
2023-03-27T00:02:52.271Z,102
2023-03-27T00:03:59.048Z,107
2023-03-27T00:05:05.787Z,104
2023-03-27T00:06:12.659Z,104
2023-03-27T00:07:21.987Z,112
2023-03-27T00:08:28.855Z,112
2023-03-27T00:09:35.744Z,106
2023-03-27T00:10:42.516Z,115
2023-03-27T00:11:49.344Z,113
2023-03-27T00:12:56.182Z,113
2023-03-27T00:14:03.088Z,110
2023-03-27T00:15:10.011Z,110
2023-03-27T00:16:22.095Z,114
2023-03-27T00:17:28.960Z,112
2023-03-27T00:18:35.676Z,109
2023-03-27T00:19:42.528Z,112
2023-03-27T00:20:49.271Z,104
2023-03-27T00:21:56.179Z,110
2023-03-27T00:23:03.110Z,109
2023-03-27T00:24:09.920Z,104
2023-03-27T00:25:16.734Z,112
2023-03-27T00:26:23.511Z,112
2023-03-27T00:27:30.388Z,121
2023-03-27T00:28:37.285Z,118
2023-03-27T00:29:44.068Z,118
2023-03-27T00:30:50.861Z,114
2023-03-27T00:31:57.650Z,117
2023-03-27T00:33:04.520Z,105
2023-03-27T00:34:11.420Z,112
2023-03-27T00:35:18.270Z,120
2023-03-27T00:36:25.061Z,120
2023-03-27T00:37:31.851Z,111
2023-03-27T00:38:38.618Z,114
2023-03-27T00:39:45.445Z,110
2023-03-27T00:40:52.294Z,112
2023-03-27T00:41:59.052Z,110
2023-03-27T00:43:05.805Z,114
2023-03-27T00:44:20.788Z,108
2023-03-27T00:45:30.404Z,110
2023-03-27T00:46:37.191Z,110
2023-03-27T00:47:44.023Z,110
2023-03-27T00:48:50.780Z,103
2023-03-27T00:49:57.640Z,111
2023-03-27T00:51:04.413Z,104
2023-03-27T00:52:11.312Z,102
2023-03-27T00:53:18.132Z,103
2023-03-27T00:54:24.860Z,102
2023-03-27T00:55:31.660Z,104
2023-03-27T00:56:38.834Z,102
2023-03-27T00:57:45.312Z,100
2023-03-27T00:58:55.032Z,96
2023-03-27T01:00:01.857Z,98
2023-03-27T01:01:08.871Z,101
2023-03-27T01:02:15.652Z,99
2023-03-27T01:03:22.608Z,105
2023-03-27T01:04:29.374Z,98
2023-03-27T01:05:36.155Z,95
2023-03-27T01:06:42.990Z,99
2023-03-27T01:08:00.184Z,97
2023-03-27T01:08:56.633Z,96
2023-03-27T01:10:03.493Z,92
2023-03-27T01:11:10.569Z,95
2023-03-27T01:12:22.430Z,91
2023-03-27T01:13:34.400Z,91
2023-03-27T01:14:51.317Z,88
2023-03-27T01:16:08.309Z,86
2023-03-27T01:17:20.185Z,89
2023-03-27T01:18:26.945Z,77
2023-03-27T01:19:33.838Z,78
2023-03-27T01:20:48.403Z,79
2023-03-27T01:22:03.106Z,77
2023-03-27T01:23:15.096Z,79
2023-03-27T01:24:24.638Z,77
2023-03-27T01:25:39.475Z,77
2023-03-27T01:26:56.349Z,77
2023-03-27T01:28:08.266Z,76
2023-03-27T01:29:20.252Z,72
2023-03-27T01:30:26.988Z,76
2023-03-27T01:31:36.767Z,71
2023-03-27T01:32:51.545Z,75
2023-03-27T01:34:05.974Z,71
2023-03-27T01:35:22.883Z,70
2023-03-27T01:36:37.579Z,67
2023-03-27T01:37:54.605Z,65
2023-03-27T01:39:11.535Z,62
2023-03-27T01:40:20.972Z,68
2023-03-27T01:41:27.772Z,63
2023-03-27T01:42:39.548Z,72
2023-03-27T01:43:54.418Z,66
2023-03-27T01:45:04.122Z,61
2023-03-27T01:46:20.986Z,72
2023-03-27T01:47:27.798Z,66
2023-03-27T01:48:42.192Z,60
2023-03-27T01:49:51.744Z,64
2023-03-27T01:51:06.415Z,63
2023-03-27T01:52:18.997Z,68
2023-03-27T01:53:25.877Z,68
2023-03-27T01:54:37.763Z,63
2023-03-27T01:55:47.381Z,63
2023-03-27T01:56:54.282Z,63
2023-03-27T01:58:03.812Z,61
2023-03-27T01:59:10.601Z,59
2023-03-27T02:00:19.318Z,58
2023-03-27T02:01:24.360Z,60
2023-03-27T02:02:36.673Z,57
2023-03-27T02:03:43.444Z,57
2023-03-27T02:04:50.310Z,63
2023-03-27T02:06:02.149Z,56
2023-03-27T02:07:11.747Z,52
2023-03-27T02:08:18.531Z,53
2023-03-27T02:09:28.160Z,51
2023-03-27T02:10:34.868Z,59
2023-03-27T02:11:41.689Z,53
2023-03-27T02:12:48.469Z,48
2023-03-27T02:14:03.092Z,54
2023-03-27T02:15:22.730Z,56
2023-03-27T02:16:19.433Z,56
2023-03-27T02:17:26.455Z,46
2023-03-27T02:18:32.973Z,54
2023-03-27T02:19:39.757Z,50
2023-03-27T02:20:49.441Z,52
2023-03-27T02:21:56.237Z,51
2023-03-27T02:23:03.240Z,49
2023-03-27T02:24:10.020Z,46
2023-03-27T02:25:16.801Z,46
2023-03-27T02:26:28.627Z,57
2023-03-27T02:27:35.485Z,61
2023-03-27T02:28:42.248Z,48
2023-03-27T02:29:59.254Z,53
2023-03-27T02:31:33.388Z,52
2023-03-27T02:32:21.052Z,45
2023-03-27T02:33:32.905Z,49
2023-03-27T02:34:49.905Z,44
2023-03-27T02:35:56.762Z,45
2023-03-27T02:37:08.745Z,43
2023-03-27T02:38:15.458Z,39
2023-03-27T02:39:32.402Z,38
2023-03-27T02:40:49.295Z,32
2023-03-27T02:41:59.177Z,36
2023-03-27T02:43:13.877Z,35
2023-03-27T02:44:30.713Z,40
2023-03-27T02:45:40.607Z,30
2023-03-27T02:46:55.151Z,33
2023-03-27T02:48:07.108Z,33
2023-03-27T02:49:13.840Z,29
2023-03-27T02:50:23.767Z,33
2023-03-27T02:51:35.668Z,26
2023-03-27T02:52:42.587Z,27
2023-03-27T02:53:49.538Z,33
2023-03-27T02:55:09.374Z,31
2023-03-27T02:56:21.229Z,28
2023-03-27T02:57:27.991Z,26
2023-03-27T02:58:34.814Z,29
2023-03-27T02:59:46.586Z,32
2023-03-27T03:00:53.509Z,29
2023-03-27T03:02:00.451Z,25
2023-03-27T03:03:07.525Z,29
2023-03-27T03:04:17.150Z,25
2023-03-27T03:05:29.027Z,29
2023-03-27T03:06:35.922Z,34
2023-03-27T03:07:42.697Z,32
2023-03-27T03:08:49.498Z,27
2023-03-27T03:09:56.269Z,34
2023-03-27T03:11:03.074Z,31
2023-03-27T03:12:12.798Z,33
2023-03-27T03:13:19.677Z,32
2023-03-27T03:14:26.489Z,36
2023-03-27T03:15:35.857Z,33
2023-03-27T03:16:42.687Z,36
2023-03-27T03:17:49.492Z,28
2023-03-27T03:18:56.369Z,28
2023-03-27T03:20:03.305Z,39
2023-03-27T03:21:10.607Z,27
2023-03-27T03:22:17.404Z,34
2023-03-27T03:23:24.227Z,25
2023-03-27T03:24:30.995Z,28
2023-03-27T03:25:37.952Z,36
2023-03-27T03:26:44.780Z,33
2023-03-27T03:27:51.630Z,28
2023-03-27T03:29:00.343Z,32
2023-03-27T03:30:05.297Z,41
2023-03-27T03:31:12.334Z,36
2023-03-27T03:32:19.183Z,36
2023-03-27T03:33:26.036Z,37
2023-03-27T03:34:32.856Z,36
2023-03-27T03:35:39.685Z,43
2023-03-27T03:36:46.403Z,35
2023-03-27T03:37:53.219Z,35
2023-03-27T03:38:59.953Z,33
2023-03-27T03:40:06.772Z,33
2023-03-27T03:41:13.865Z,40
2023-03-27T03:42:20.979Z,38
2023-03-27T03:43:27.551Z,30
2023-03-27T03:44:34.383Z,29
2023-03-27T03:45:41.167Z,30
2023-03-27T03:46:47.919Z,32
2023-03-27T03:47:54.725Z,41
2023-03-27T03:49:01.607Z,33
2023-03-27T03:50:08.481Z,33
2023-03-27T03:51:15.208Z,29
2023-03-27T03:52:21.959Z,28
2023-03-27T03:53:28.752Z,35
2023-03-27T03:54:35.643Z,37
2023-03-27T03:55:42.462Z,33
2023-03-27T03:56:49.295Z,31
2023-03-27T03:58:11.549Z,26
2023-03-27T04:00:10.052Z,29
2023-03-27T04:01:17.203Z,34
2023-03-27T04:02:24.096Z,30
2023-03-27T04:03:33.743Z,32
2023-03-27T04:04:40.441Z,29
2023-03-27T04:05:47.229Z,29
2023-03-27T04:06:54.023Z,30
2023-03-27T04:08:00.861Z,30
2023-03-27T04:09:07.689Z,29
2023-03-27T04:10:14.486Z,34
2023-03-27T04:11:21.328Z,30
2023-03-27T04:12:28.084Z,33
2023-03-27T04:13:34.865Z,25
2023-03-27T04:14:41.634Z,29
2023-03-27T04:15:48.455Z,30
2023-03-27T04:16:55.206Z,35
2023-03-27T04:18:02.157Z,34
2023-03-27T04:19:08.729Z,29
2023-03-27T04:20:15.519Z,32
2023-03-27T04:21:22.350Z,30
2023-03-27T04:22:29.171Z,26
2023-03-27T04:23:35.944Z,25
2023-03-27T04:24:42.820Z,30
2023-03-27T04:25:49.689Z,32
2023-03-27T04:26:56.437Z,29
2023-03-27T04:28:03.187Z,35
2023-03-27T04:29:09.956Z,35
2023-03-27T04:30:16.759Z,36
2023-03-27T04:31:23.619Z,40
2023-03-27T04:32:30.424Z,37
2023-03-27T04:33:37.252Z,36
2023-03-27T04:34:44.017Z,38
2023-03-27T04:36:05.249Z,57
2023-03-27T04:36:57.893Z,46
2023-03-27T04:38:04.645Z,52
2023-03-27T04:39:11.440Z,42
2023-03-27T04:40:18.290Z,66
2023-03-27T04:41:25.113Z,44
2023-03-27T04:42:31.951Z,46
2023-03-27T04:43:38.808Z,61
2023-03-27T04:44:45.636Z,56
2023-03-27T04:45:52.416Z,50
2023-03-27T04:46:59.324Z,64
2023-03-27T04:48:06.254Z,49
2023-03-27T04:49:12.982Z,59
2023-03-27T04:50:22.718Z,57
2023-03-27T04:51:29.494Z,58
2023-03-27T04:52:36.258Z,73
2023-03-27T04:53:43.092Z,70
2023-03-27T04:54:49.922Z,54
2023-03-27T04:55:56.716Z,57
2023-03-27T04:57:09.428Z,57
2023-03-27T04:58:17.494Z,53
2023-03-27T04:59:24.365Z,57
2023-03-27T05:00:31.133Z,49
2023-03-27T05:01:38.035Z,51
2023-03-27T05:02:44.879Z,46
2023-03-27T05:03:51.871Z,51
2023-03-27T05:04:58.496Z,57
2023-03-27T05:06:05.248Z,55
2023-03-27T05:07:12.126Z,43
2023-03-27T05:08:18.914Z,44
2023-03-27T05:09:25.823Z,48
2023-03-27T05:10:32.762Z,50
2023-03-27T05:11:39.545Z,45
2023-03-27T05:12:46.333Z,42
2023-03-27T05:13:53.136Z,44
2023-03-27T05:14:59.972Z,40
2023-03-27T05:16:06.750Z,47
2023-03-27T05:17:13.607Z,46
2023-03-27T05:18:20.455Z,39
2023-03-27T05:19:27.303Z,44
2023-03-27T05:20:34.107Z,37
2023-03-27T05:21:40.920Z,36
2023-03-27T05:22:47.757Z,47
2023-03-27T05:23:57.285Z,33
2023-03-27T05:25:04.061Z,38
2023-03-27T05:26:10.982Z,35
2023-03-27T05:27:17.696Z,36
2023-03-27T05:28:24.503Z,39
2023-03-27T05:29:31.290Z,32
2023-03-27T05:30:38.104Z,38
2023-03-27T05:31:44.896Z,50
2023-03-27T05:32:51.755Z,50
2023-03-27T05:33:58.526Z,39
2023-03-27T05:35:05.369Z,25
2023-03-27T05:36:12.124Z,46
2023-03-27T05:37:21.925Z,30
2023-03-27T05:38:28.656Z,43
2023-03-27T05:39:35.410Z,55
2023-03-27T05:40:42.375Z,52
2023-03-27T05:41:49.292Z,39
2023-03-27T05:42:56.098Z,38
2023-03-27T05:44:02.871Z,61
2023-03-27T05:45:09.697Z,59
2023-03-27T05:46:20.729Z,46
2023-03-27T05:47:23.484Z,49
2023-03-27T05:48:30.160Z,55
2023-03-27T05:49:36.907Z,62
2023-03-27T05:50:43.700Z,70
2023-03-27T05:51:50.562Z,73
2023-03-27T05:52:57.386Z,57
2023-03-27T05:54:04.163Z,56
2023-03-27T05:55:10.934Z,61
2023-03-27T05:56:17.680Z,57
2023-03-27T05:57:24.522Z,59
2023-03-27T05:58:31.338Z,59
2023-03-27T05:59:38.148Z,51
2023-03-27T06:00:44.932Z,54
2023-03-27T06:01:51.772Z,64
2023-03-27T06:02:58.729Z,54
2023-03-27T06:04:05.701Z,70
2023-03-27T06:05:12.291Z,82
2023-03-27T06:06:19.118Z,81
2023-03-27T06:07:25.840Z,81
2023-03-27T06:08:32.709Z,91
2023-03-27T06:09:39.525Z,96
2023-03-27T06:10:46.264Z,91
2023-03-27T06:11:53.113Z,94
2023-03-27T06:12:59.920Z,84
2023-03-27T06:14:11.747Z,95
2023-03-27T06:15:18.511Z,99
2023-03-27T06:16:25.450Z,100
2023-03-27T06:17:32.423Z,88
2023-03-27T06:18:39.153Z,88
2023-03-27T06:19:45.930Z,100
2023-03-27T06:20:52.713Z,98
2023-03-27T06:21:59.562Z,95
2023-03-27T06:23:06.469Z,84
2023-03-27T06:24:13.241Z,93
2023-03-27T06:25:20.021Z,80
2023-03-27T06:26:26.793Z,76
2023-03-27T06:27:33.612Z,94
2023-03-27T06:28:40.439Z,75
2023-03-27T06:29:47.294Z,77
2023-03-27T06:30:54.079Z,74
2023-03-27T06:32:00.850Z,72
2023-03-27T06:33:07.879Z,61
2023-03-27T06:34:14.490Z,70
2023-03-27T06:35:21.422Z,67
2023-03-27T06:36:28.269Z,57
2023-03-27T06:37:35.012Z,92
2023-03-27T06:38:41.723Z,81
2023-03-27T06:39:48.561Z,80
2023-03-27T06:40:55.607Z,53
2023-03-27T06:42:02.225Z,64
2023-03-27T06:43:09.091Z,55
2023-03-27T06:44:15.823Z,63
2023-03-27T06:45:22.634Z,56
2023-03-27T06:46:43.040Z,67
2023-03-27T06:47:53.669Z,68
2023-03-27T06:48:52.761Z,70
2023-03-27T06:49:59.577Z,54
2023-03-27T06:51:06.317Z,49
2023-03-27T06:52:13.140Z,70
2023-03-27T06:53:27.014Z,49
2023-03-27T06:54:26.768Z,54
2023-03-27T06:55:33.660Z,54
2023-03-27T06:56:40.619Z,47
2023-03-27T06:57:47.408Z,40
2023-03-27T06:58:54.217Z,37
2023-03-27T07:00:02.398Z,56
2023-03-27T07:01:08.101Z,48
2023-03-27T07:02:14.964Z,50
2023-03-27T07:03:21.755Z,57
2023-03-27T07:04:28.545Z,63
2023-03-27T07:05:35.352Z,49
2023-03-27T07:06:42.145Z,47
2023-03-27T07:07:49.384Z,48
2023-03-27T07:08:55.815Z,46
2023-03-27T07:10:02.582Z,50
2023-03-27T07:11:11.897Z,59
2023-03-27T07:12:16.591Z,64
2023-03-27T07:13:23.502Z,45
2023-03-27T07:14:30.266Z,59
2023-03-27T07:15:37.285Z,55
2023-03-27T07:16:43.866Z,60
2023-03-27T07:17:50.685Z,52
2023-03-27T07:19:02.060Z,49
2023-03-27T07:20:07.311Z,60
2023-03-27T07:21:14.267Z,58
2023-03-27T07:22:21.088Z,40
2023-03-27T07:23:27.896Z,54
2023-03-27T07:24:34.680Z,63
2023-03-27T07:25:41.491Z,39
2023-03-27T07:26:48.245Z,44
2023-03-27T07:27:55.060Z,41
2023-03-27T07:29:04.572Z,37
2023-03-27T07:30:11.400Z,40
2023-03-27T07:31:32.955Z,59
2023-03-27T07:32:34.300Z,44
2023-03-27T07:33:32.083Z,49
2023-03-27T07:34:38.773Z,57
2023-03-27T07:35:45.568Z,48
2023-03-27T07:36:52.356Z,48
2023-03-27T07:37:59.188Z,57
2023-03-27T07:39:06.033Z,55
2023-03-27T07:40:12.877Z,52
2023-03-27T07:41:20.025Z,40
2023-03-27T07:42:27.072Z,39
2023-03-27T07:43:34.210Z,28
2023-03-27T07:44:41.003Z,32
2023-03-27T07:45:47.784Z,34
2023-03-27T07:46:54.592Z,57
2023-03-27T07:48:01.713Z,56
2023-03-27T07:49:10.988Z,54
2023-03-27T07:50:17.879Z,56
2023-03-27T07:51:24.780Z,52
2023-03-27T07:52:31.587Z,57
2023-03-27T07:53:38.363Z,41
2023-03-27T07:54:45.146Z,42
2023-03-27T07:55:52.018Z,36
2023-03-27T07:56:59.014Z,52
2023-03-27T07:58:05.644Z,60
2023-03-27T07:59:12.525Z,60
2023-03-27T08:00:19.309Z,55
2023-03-27T08:01:28.823Z,44
2023-03-27T08:02:35.801Z,68
2023-03-27T08:03:42.648Z,55
2023-03-27T08:04:49.479Z,59
2023-03-27T08:05:56.458Z,60
2023-03-27T08:07:02.992Z,66
2023-03-27T08:08:09.928Z,63
2023-03-27T08:09:16.928Z,51
2023-03-27T08:10:23.813Z,52
2023-03-27T08:11:31.225Z,71
2023-03-27T08:12:37.377Z,58
2023-03-27T08:13:44.173Z,51
2023-03-27T08:14:51.018Z,49
2023-03-27T08:15:57.926Z,53
2023-03-27T08:17:15.836Z,60
2023-03-27T08:18:16.570Z,50
2023-03-27T08:19:23.285Z,47
2023-03-27T08:20:30.084Z,49
2023-03-27T08:21:36.879Z,53
2023-03-27T08:22:43.683Z,66
2023-03-27T08:23:50.465Z,62
2023-03-27T08:24:57.243Z,63
2023-03-27T08:26:03.994Z,56
2023-03-27T08:27:10.847Z,56
2023-03-27T08:28:17.713Z,59
2023-03-27T08:29:24.585Z,56
2023-03-27T08:30:31.342Z,58
2023-03-27T08:31:38.120Z,66
2023-03-27T08:32:45.051Z,76
2023-03-27T08:33:51.817Z,79
2023-03-27T08:34:58.678Z,87
2023-03-27T08:36:05.517Z,89
2023-03-27T08:37:12.377Z,93
2023-03-27T08:38:25.927Z,96
2023-03-27T08:39:26.092Z,96
2023-03-27T08:40:32.848Z,104
2023-03-27T08:41:39.646Z,89
2023-03-27T08:42:56.606Z,107
2023-03-27T08:44:05.993Z,106
2023-03-27T08:45:17.849Z,111
2023-03-27T08:46:27.342Z,114
2023-03-27T08:47:42.170Z,114
2023-03-27T08:48:54.158Z,116
2023-03-27T08:50:00.970Z,119
2023-03-27T08:51:07.841Z,114
2023-03-27T08:52:17.719Z,120
2023-03-27T08:53:30.202Z,116
2023-03-27T08:54:42.086Z,112
2023-03-27T08:55:48.828Z,122
2023-03-27T08:56:55.600Z,120
2023-03-27T08:58:02.354Z,110
2023-03-27T08:59:09.150Z,117
2023-03-27T09:00:16.086Z,109
2023-03-27T09:01:25.833Z,114
2023-03-27T09:02:42.779Z,111
2023-03-27T09:03:54.682Z,112
2023-03-27T09:05:06.389Z,106
2023-03-27T09:06:13.326Z,108
2023-03-27T09:07:20.098Z,105
2023-03-27T09:08:31.989Z,102
2023-03-27T09:09:43.951Z,87
2023-03-27T09:10:55.906Z,98
2023-03-27T09:12:07.911Z,96
2023-03-27T09:13:25.524Z,91
2023-03-27T09:14:37.276Z,105
2023-03-27T09:15:44.042Z,101
2023-03-27T09:17:00.976Z,96
2023-03-27T09:18:12.855Z,115
2023-03-27T09:19:19.661Z,108
2023-03-27T09:20:36.684Z,113
2023-03-27T09:21:43.403Z,116
2023-03-27T09:22:55.283Z,110
2023-03-27T09:24:12.119Z,103
2023-03-27T09:25:18.967Z,114
2023-03-27T09:26:33.546Z,107
2023-03-27T09:27:40.376Z,102
2023-03-27T09:28:48.939Z,109
2023-03-27T09:30:05.079Z,109
2023-03-27T09:31:06.252Z,105
2023-03-27T09:32:18.013Z,94
2023-03-27T09:33:24.949Z,97
2023-03-27T09:34:31.772Z,97
2023-03-27T09:35:38.758Z,92
2023-03-27T09:36:45.365Z,83
2023-03-27T09:37:52.126Z,85
2023-03-27T09:38:59.020Z,80
2023-03-27T09:40:05.933Z,86
2023-03-27T09:41:12.860Z,77
2023-03-27T09:42:22.537Z,61
2023-03-27T09:43:34.433Z,79
2023-03-27T09:44:44.139Z,69
2023-03-27T09:45:50.885Z,66
2023-03-27T09:46:57.729Z,60
2023-03-27T09:48:09.666Z,61
2023-03-27T09:49:21.433Z,66
2023-03-27T09:50:28.253Z,61
2023-03-27T09:51:43.010Z,61
2023-03-27T09:52:52.628Z,70
2023-03-27T09:54:09.562Z,62
2023-03-27T09:55:16.371Z,56
2023-03-27T09:56:28.217Z,58
2023-03-27T09:57:35.066Z,49
2023-03-27T09:58:41.890Z,55
2023-03-27T09:59:48.692Z,43
2023-03-27T10:00:58.505Z,40
2023-03-27T10:02:10.224Z,38
2023-03-27T10:03:22.194Z,34
2023-03-27T10:04:28.931Z,32
2023-03-27T10:05:35.664Z,36
2023-03-27T10:06:42.443Z,37
2023-03-27T10:07:54.328Z,25
2023-03-27T10:09:01.186Z,25
2023-03-27T10:10:18.104Z,25
2023-03-27T10:11:24.832Z,25
2023-03-27T10:12:31.620Z,25
2023-03-27T10:13:38.368Z,41
2023-03-27T10:14:48.298Z,33
2023-03-27T10:15:54.825Z,28
2023-03-27T10:17:01.687Z,34
2023-03-27T10:18:08.344Z,46
2023-03-27T10:19:25.239Z,35
2023-03-27T10:20:32.336Z,26
2023-03-27T10:21:39.205Z,25
2023-03-27T10:22:45.965Z,30
2023-03-27T10:23:55.512Z,40
2023-03-27T10:25:02.255Z,27
2023-03-27T10:26:14.283Z,36
2023-03-27T10:27:21.013Z,38
2023-03-27T10:28:27.743Z,27
2023-03-27T10:29:39.076Z,32
2023-03-27T10:30:43.892Z,47
2023-03-27T10:31:50.884Z,32
2023-03-27T10:32:57.518Z,43
2023-03-27T10:34:04.350Z,29
2023-03-27T10:35:11.187Z,34
2023-03-27T10:36:28.146Z,32
2023-03-27T10:37:34.898Z,25
2023-03-27T10:38:41.724Z,30
2023-03-27T10:39:48.470Z,31
2023-03-27T10:40:55.593Z,25
2023-03-27T10:42:02.190Z,31
2023-03-27T10:43:10.142Z,30
2023-03-27T10:44:15.832Z,33
2023-03-27T10:45:22.627Z,37
2023-03-27T10:46:29.444Z,35
2023-03-27T10:47:36.283Z,32
2023-03-27T10:48:42.974Z,25
2023-03-27T10:49:52.626Z,25
2023-03-27T10:51:04.566Z,30
2023-03-27T10:52:11.350Z,26
2023-03-27T10:53:23.345Z,31
2023-03-27T10:54:33.284Z,25
2023-03-27T10:55:45.167Z,28
2023-03-27T10:56:54.821Z,35
2023-03-27T10:58:06.710Z,50
2023-03-27T10:59:25.612Z,28
2023-03-27T11:00:31.265Z,25
2023-03-27T11:01:38.089Z,35
2023-03-27T11:02:45.003Z,45
2023-03-27T11:03:54.820Z,27
2023-03-27T11:05:06.646Z,31
2023-03-27T11:06:13.413Z,29
2023-03-27T11:07:20.313Z,36
2023-03-27T11:08:27.089Z,29
2023-03-27T11:09:39.628Z,39
2023-03-27T11:10:46.502Z,40
2023-03-27T11:11:53.287Z,34
2023-03-27T11:13:02.582Z,31
2023-03-27T11:14:12.092Z,46
2023-03-27T11:15:24.000Z,30
2023-03-27T11:16:33.672Z,36
2023-03-27T11:17:43.469Z,36
2023-03-27T11:18:52.932Z,42
2023-03-27T11:20:09.802Z,34
2023-03-27T11:21:21.704Z,31
2023-03-27T11:22:38.622Z,40
2023-03-27T11:23:45.408Z,45
2023-03-27T11:24:57.343Z,39
2023-03-27T11:26:04.246Z,33
2023-03-27T11:27:12.282Z,41
2023-03-27T11:28:17.760Z,25
2023-03-27T11:29:34.700Z,44
2023-03-27T11:30:46.608Z,39
2023-03-27T11:31:53.596Z,36
2023-03-27T11:33:00.383Z,34
2023-03-27T11:34:28.690Z,33
2023-03-27T11:35:31.870Z,32
2023-03-27T11:36:38.642Z,31
2023-03-27T11:37:53.454Z,35
2023-03-27T11:39:00.193Z,25
2023-03-27T11:40:17.103Z,38
2023-03-27T11:41:28.985Z,32
2023-03-27T11:42:35.777Z,28
2023-03-27T11:43:42.609Z,41
2023-03-27T11:44:49.537Z,42
2023-03-27T11:45:56.325Z,38
2023-03-27T11:47:03.078Z,35
2023-03-27T11:48:14.958Z,38
2023-03-27T11:49:31.892Z,43
2023-03-27T11:50:48.762Z,44
2023-03-27T11:52:05.744Z,37
2023-03-27T11:53:15.322Z,34
2023-03-27T11:54:25.025Z,25
2023-03-27T11:55:36.886Z,36
2023-03-27T11:56:53.958Z,25
2023-03-27T11:58:00.734Z,25
2023-03-27T11:59:17.699Z,48
2023-03-27T12:00:34.792Z,48
2023-03-27T12:01:44.312Z,36
2023-03-27T12:02:51.183Z,42
2023-03-27T12:04:00.612Z,27
2023-03-27T12:05:15.491Z,25
2023-03-27T12:06:27.322Z,26
2023-03-27T12:07:42.183Z,27
2023-03-27T12:08:46.180Z,36
2023-03-27T12:09:55.779Z,26
2023-03-27T12:11:12.762Z,29
2023-03-27T12:12:19.587Z,34
2023-03-27T12:13:41.521Z,32
2023-03-27T12:14:53.449Z,25
2023-03-27T12:16:05.315Z,41
2023-03-27T12:17:17.331Z,31
2023-03-27T12:18:32.416Z,29
2023-03-27T12:19:39.332Z,25
2023-03-27T12:20:53.474Z,27
2023-03-27T12:22:07.185Z,32
2023-03-27T12:23:21.092Z,29
2023-03-27T12:24:40.579Z,31
2023-03-27T12:25:52.773Z,27
2023-03-27T12:26:59.684Z,28
2023-03-27T12:28:08.794Z,25
2023-03-27T12:29:25.745Z,28
2023-03-27T12:30:32.591Z,36
2023-03-27T12:31:47.233Z,39
2023-03-27T12:33:04.260Z,42
2023-03-27T12:34:21.225Z,45
2023-03-27T12:35:34.102Z,40
2023-03-27T12:36:46.833Z,34
2023-03-27T12:38:07.140Z,53
2023-03-27T12:39:19.116Z,42
2023-03-27T12:40:26.036Z,31
2023-03-27T12:41:35.763Z,50
2023-03-27T12:42:43.762Z,32
2023-03-27T12:43:52.217Z,37
2023-03-27T12:45:01.690Z,39
2023-03-27T12:46:18.680Z,43
2023-03-27T12:47:28.376Z,31
2023-03-27T12:48:35.166Z,29
2023-03-27T12:49:52.059Z,29
2023-03-27T12:51:01.539Z,42
2023-03-27T12:52:08.389Z,34
2023-03-27T12:53:15.148Z,30
2023-03-27T12:54:30.048Z,49
2023-03-27T12:55:39.525Z,40
2023-03-27T12:56:46.315Z,41
2023-03-27T12:57:53.449Z,40
2023-03-27T12:59:00.014Z,42
2023-03-27T13:00:07.096Z,45
2023-03-27T13:01:24.028Z,46
2023-03-27T13:02:41.201Z,43
2023-03-27T13:03:55.964Z,35
2023-03-27T13:05:03.240Z,41
2023-03-27T13:06:19.550Z,38
2023-03-27T13:07:36.575Z,33
2023-03-27T13:08:50.967Z,40
2023-03-27T13:10:02.841Z,25
2023-03-27T13:11:09.588Z,25
2023-03-27T13:12:16.418Z,25
2023-03-27T13:13:31.115Z,44
2023-03-27T13:14:48.026Z,31
2023-03-27T13:16:04.971Z,31
2023-03-27T13:17:16.847Z,32
2023-03-27T13:18:28.685Z,32
2023-03-27T13:19:40.506Z,25
2023-03-27T13:20:52.374Z,39
2023-03-27T13:22:04.272Z,26
2023-03-27T13:23:16.211Z,32
2023-03-27T13:24:30.697Z,25
2023-03-27T13:25:48.101Z,32
2023-03-27T13:27:00.056Z,33
2023-03-27T13:28:09.481Z,31
2023-03-27T13:29:18.861Z,42
2023-03-27T13:30:25.671Z,40
2023-03-27T13:31:42.642Z,28
2023-03-27T13:32:49.482Z,25
2023-03-27T13:34:06.397Z,30
2023-03-27T13:35:20.786Z,26
2023-03-27T13:36:27.556Z,25
2023-03-27T13:37:36.566Z,31
2023-03-27T13:38:44.017Z,32
2023-03-27T13:39:55.834Z,30
2023-03-27T13:41:05.566Z,30
2023-03-27T13:42:22.471Z,31
2023-03-27T13:43:34.383Z,25
2023-03-27T13:44:41.169Z,27
2023-03-27T13:45:58.315Z,25
2023-03-27T13:47:06.095Z,26
2023-03-27T13:48:16.670Z,27
2023-03-27T13:49:28.599Z,43
2023-03-27T13:50:43.423Z,48
2023-03-27T13:52:00.447Z,33
2023-03-27T13:53:12.473Z,28
2023-03-27T13:54:29.378Z,25
2023-03-27T13:55:43.903Z,34
2023-03-27T13:56:50.725Z,42
2023-03-27T13:58:05.590Z,33
2023-03-27T13:59:17.900Z,32
2023-03-27T14:00:32.683Z,37
2023-03-27T14:01:47.434Z,31
2023-03-27T14:02:59.275Z,30
2023-03-27T14:04:16.020Z,33
2023-03-27T14:05:33.023Z,29
2023-03-27T14:06:47.701Z,28
2023-03-27T14:07:59.596Z,35
2023-03-27T14:09:14.351Z,27
2023-03-27T14:10:31.222Z,35
2023-03-27T14:11:40.875Z,33
2023-03-27T14:12:50.630Z,38
2023-03-27T14:14:02.538Z,34
2023-03-27T14:15:19.404Z,33
2023-03-27T14:16:36.416Z,38
2023-03-27T14:17:53.444Z,28
2023-03-27T14:19:10.314Z,38
2023-03-27T14:20:25.106Z,42
2023-03-27T14:21:38.672Z,45
2023-03-27T14:22:48.729Z,40
2023-03-27T14:24:00.716Z,46
2023-03-27T14:25:07.536Z,40
2023-03-27T14:26:19.480Z,36
2023-03-27T14:27:26.252Z,31
2023-03-27T14:28:33.086Z,25
2023-03-27T14:29:44.918Z,37
2023-03-27T14:31:04.561Z,39
2023-03-27T14:32:11.301Z,29
2023-03-27T14:33:18.181Z,40
2023-03-27T14:34:25.074Z,25
2023-03-27T14:35:31.732Z,42
2023-03-27T14:36:39.149Z,40
2023-03-27T14:37:48.158Z,33
2023-03-27T14:38:57.582Z,55
2023-03-27T14:40:04.386Z,50
2023-03-27T14:41:21.259Z,53
2023-03-27T14:42:29.812Z,48
2023-03-27T14:43:34.921Z,56
2023-03-27T14:44:41.649Z,60
2023-03-27T14:45:48.494Z,51
2023-03-27T14:46:55.422Z,47
2023-03-27T14:48:07.323Z,37
2023-03-27T14:49:24.714Z,35
2023-03-27T14:50:30.951Z,43
2023-03-27T14:51:37.890Z,36
2023-03-27T14:52:47.550Z,50
2023-03-27T14:53:54.418Z,38
2023-03-27T14:55:01.242Z,53
2023-03-27T14:56:08.204Z,47
2023-03-27T14:57:25.272Z,42
2023-03-27T14:58:32.068Z,50
2023-03-27T14:59:38.777Z,32
2023-03-27T15:00:45.667Z,38
2023-03-27T15:01:52.398Z,36
2023-03-27T15:02:59.212Z,30
2023-03-27T15:04:06.075Z,25
2023-03-27T15:05:12.903Z,25
2023-03-27T15:06:19.638Z,32
2023-03-27T15:07:26.440Z,47
2023-03-27T15:08:33.236Z,30
2023-03-27T15:09:40.164Z,27
2023-03-27T15:10:46.960Z,31
2023-03-27T15:11:53.740Z,25
2023-03-27T15:13:00.588Z,27
2023-03-27T15:14:07.384Z,26
2023-03-27T15:15:17.007Z,25
2023-03-27T15:16:26.601Z,33
2023-03-27T15:17:33.500Z,32
2023-03-27T15:18:40.387Z,33
2023-03-27T15:19:47.209Z,30
2023-03-27T15:20:53.947Z,35
2023-03-27T15:22:01.400Z,27
2023-03-27T15:23:07.648Z,25
2023-03-27T15:24:17.471Z,31
2023-03-27T15:25:29.312Z,40
2023-03-27T15:26:44.050Z,31
2023-03-27T15:27:50.854Z,32
2023-03-27T15:28:57.702Z,26
2023-03-27T15:30:04.562Z,25
2023-03-27T15:31:14.196Z,31
2023-03-27T15:32:21.052Z,34
2023-03-27T15:33:27.826Z,36
2023-03-27T15:34:34.691Z,25
2023-03-27T15:35:41.429Z,37
2023-03-27T15:36:48.250Z,43
2023-03-27T15:37:55.210Z,35
2023-03-27T15:39:01.981Z,25
2023-03-27T15:40:08.996Z,29
2023-03-27T15:41:21.717Z,31
2023-03-27T15:42:31.348Z,25
2023-03-27T15:43:48.326Z,25
2023-03-27T15:44:55.226Z,27
2023-03-27T15:46:02.343Z,28
2023-03-27T15:47:14.166Z,26
2023-03-27T15:48:26.125Z,32
2023-03-27T15:49:35.722Z,35
2023-03-27T15:50:42.586Z,26
2023-03-27T15:51:56.991Z,25
2023-03-27T15:53:03.773Z,32
2023-03-27T15:54:10.782Z,37
2023-03-27T15:55:27.733Z,39
2023-03-27T15:56:37.292Z,40
2023-03-27T15:57:44.048Z,33
2023-03-27T15:58:50.801Z,34
2023-03-27T15:59:57.735Z,25
2023-03-27T16:01:17.884Z,40
2023-03-27T16:02:14.424Z,41
2023-03-27T16:03:21.442Z,30
2023-03-27T16:04:28.122Z,36
2023-03-27T16:05:37.721Z,52
2023-03-27T16:06:45.950Z,41
2023-03-27T16:07:58.749Z,30
2023-03-27T16:09:05.542Z,29
2023-03-27T16:10:22.875Z,43
2023-03-27T16:11:32.412Z,42
2023-03-27T16:12:44.274Z,28
2023-03-27T16:13:51.205Z,36
2023-03-27T16:15:00.942Z,35
2023-03-27T16:16:07.821Z,26
2023-03-27T16:17:22.305Z,32
2023-03-27T16:18:34.694Z,38
2023-03-27T16:19:41.740Z,28
2023-03-27T16:20:58.619Z,25